sensor_id;sensor_type;location;lat;lon;timestamp;P1;durP1;ratioP1;P2;durP2;ratioP2
55031;SDS011;40928;51.076;7.950;2023-08-24T00:01:09;7.07;;;2.72;;
55031;SDS011;40928;51.076;7.950;2023-08-24T00:03:39;9.07;;;2.80;;
55031;SDS011;40928;51.076;7.950;2023-08-24T00:06:05;9.02;;;3.22;;
55031;SDS011;40928;51.076;7.950;2023-08-24T00:08:31;7.68;;;2.42;;
55031;SDS011;40928;51.076;7.950;2023-08-24T00:10:57;7.82;;;3.10;;
55031;SDS011;40928;51.076;7.950;2023-08-24T00:13:23;4.78;;;2.80;;
55031;SDS011;40928;51.076;7.950;2023-08-24T00:15:50;9.00;;;3.35;;
55031;SDS011;40928;51.076;7.950;2023-08-24T00:18:16;11.60;;;3.00;;
55031;SDS011;40928;51.076;7.950;2023-08-24T00:20:43;4.93;;;2.50;;
55031;SDS011;40928;51.076;7.950;2023-08-24T00:23:09;7.53;;;2.53;;
55031;SDS011;40928;51.076;7.950;2023-08-24T00:25:35;6.75;;;3.33;;
55031;SDS011;40928;51.076;7.950;2023-08-24T00:28:00;7.60;;;3.08;;
55031;SDS011;40928;51.076;7.950;2023-08-24T00:30:26;10.48;;;3.20;;
55031;SDS011;40928;51.076;7.950;2023-08-24T00:32:52;6.45;;;3.00;;
55031;SDS011;40928;51.076;7.950;2023-08-24T00:35:17;6.50;;;3.55;;
55031;SDS011;40928;51.076;7.950;2023-08-24T00:37:43;12.05;;;4.22;;
55031;SDS011;40928;51.076;7.950;2023-08-24T00:40:09;9.23;;;3.80;;
55031;SDS011;40928;51.076;7.950;2023-08-24T00:42:41;8.93;;;4.53;;
55031;SDS011;40928;51.076;7.950;2023-08-24T00:45:09;6.40;;;3.90;;
55031;SDS011;40928;51.076;7.950;2023-08-24T00:47:36;7.57;;;3.92;;
55031;SDS011;40928;51.076;7.950;2023-08-24T00:50:05;12.13;;;4.50;;
55031;SDS011;40928;51.076;7.950;2023-08-24T00:52:32;7.70;;;4.32;;
55031;SDS011;40928;51.076;7.950;2023-08-24T00:54:58;7.75;;;4.40;;
55031;SDS011;40928;51.076;7.950;2023-08-24T00:57:28;8.93;;;4.97;;
55031;SDS011;40928;51.076;7.950;2023-08-24T00:59:55;11.55;;;4.70;;
55031;SDS011;40928;51.076;7.950;2023-08-24T01:02:21;12.85;;;4.22;;
55031;SDS011;40928;51.076;7.950;2023-08-24T01:04:47;11.38;;;4.30;;
55031;SDS011;40928;51.076;7.950;2023-08-24T01:07:13;7.45;;;3.90;;
55031;SDS011;40928;51.076;7.950;2023-08-24T01:09:41;6.45;;;3.72;;
55031;SDS011;40928;51.076;7.950;2023-08-24T01:17:29;4.85;;;3.35;;
55031;SDS011;40928;51.076;7.950;2023-08-24T01:19:56;6.38;;;3.40;;
55031;SDS011;40928;51.076;7.950;2023-08-24T01:27:35;5.25;;;2.90;;
55031;SDS011;40928;51.076;7.950;2023-08-24T01:30:02;5.47;;;3.03;;
55031;SDS011;40928;51.076;7.950;2023-08-24T01:32:32;6.50;;;2.83;;
55031;SDS011;40928;51.076;7.950;2023-08-24T01:34:59;6.63;;;3.17;;
55031;SDS011;40928;51.076;7.950;2023-08-24T01:37:26;5.35;;;3.30;;
55031;SDS011;40928;51.076;7.950;2023-08-24T01:42:56;8.07;;;2.97;;
55031;SDS011;40928;51.076;7.950;2023-08-24T01:45:29;4.70;;;2.53;;
55031;SDS011;40928;51.076;7.950;2023-08-24T01:47:56;4.93;;;2.72;;
55031;SDS011;40928;51.076;7.950;2023-08-24T01:50:24;7.32;;;2.75;;
55031;SDS011;40928;51.076;7.950;2023-08-24T01:52:50;6.25;;;2.67;;
55031;SDS011;40928;51.076;7.950;2023-08-24T01:55:18;4.55;;;2.97;;
55031;SDS011;40928;51.076;7.950;2023-08-24T01:57:45;7.35;;;3.30;;
55031;SDS011;40928;51.076;7.950;2023-08-24T02:00:11;5.32;;;3.28;;
55031;SDS011;40928;51.076;7.950;2023-08-24T02:02:42;11.27;;;2.58;;
55031;SDS011;40928;51.076;7.950;2023-08-24T02:05:09;4.60;;;2.80;;
55031;SDS011;40928;51.076;7.950;2023-08-24T02:07:35;5.60;;;2.60;;
55031;SDS011;40928;51.076;7.950;2023-08-24T02:20:05;9.25;;;3.15;;
55031;SDS011;40928;51.076;7.950;2023-08-24T02:22:36;7.43;;;3.25;;
55031;SDS011;40928;51.076;7.950;2023-08-24T02:25:03;4.57;;;2.72;;
55031;SDS011;40928;51.076;7.950;2023-08-24T02:27:31;2.85;;;2.35;;
55031;SDS011;40928;51.076;7.950;2023-08-24T02:29:57;3.67;;;2.60;;
55031;SDS011;40928;51.076;7.950;2023-08-24T02:32:23;5.28;;;2.90;;
55031;SDS011;40928;51.076;7.950;2023-08-24T02:34:49;8.07;;;2.83;;
55031;SDS011;40928;51.076;7.950;2023-08-24T02:37:14;6.53;;;3.15;;
55031;SDS011;40928;51.076;7.950;2023-08-24T02:39:41;5.78;;;3.30;;
55031;SDS011;40928;51.076;7.950;2023-08-24T02:42:06;7.00;;;3.40;;
55031;SDS011;40928;51.076;7.950;2023-08-24T02:44:32;5.53;;;3.13;;
55031;SDS011;40928;51.076;7.950;2023-08-24T02:46:57;5.03;;;2.53;;
55031;SDS011;40928;51.076;7.950;2023-08-24T02:49:24;4.88;;;2.88;;
55031;SDS011;40928;51.076;7.950;2023-08-24T02:51:50;7.43;;;4.50;;
55031;SDS011;40928;51.076;7.950;2023-08-24T02:54:15;6.60;;;2.80;;
55031;SDS011;40928;51.076;7.950;2023-08-24T02:56:41;4.95;;;2.78;;
55031;SDS011;40928;51.076;7.950;2023-08-24T02:59:07;5.65;;;2.88;;
55031;SDS011;40928;51.076;7.950;2023-08-24T03:01:32;9.30;;;3.03;;
55031;SDS011;40928;51.076;7.950;2023-08-24T03:03:59;6.78;;;2.63;;
55031;SDS011;40928;51.076;7.950;2023-08-24T03:06:25;4.60;;;2.40;;
55031;SDS011;40928;51.076;7.950;2023-08-24T03:08:51;7.85;;;3.08;;
55031;SDS011;40928;51.076;7.950;2023-08-24T03:11:17;5.72;;;3.10;;
55031;SDS011;40928;51.076;7.950;2023-08-24T03:13:43;5.18;;;2.88;;
55031;SDS011;40928;51.076;7.950;2023-08-24T03:16:09;7.03;;;3.47;;
55031;SDS011;40928;51.076;7.950;2023-08-24T03:18:36;5.75;;;2.90;;
55031;SDS011;40928;51.076;7.950;2023-08-24T03:21:08;6.95;;;3.63;;
55031;SDS011;40928;51.076;7.950;2023-08-24T03:23:35;7.60;;;4.10;;
55031;SDS011;40928;51.076;7.950;2023-08-24T03:26:00;8.13;;;3.90;;
55031;SDS011;40928;51.076;7.950;2023-08-24T03:28:26;7.45;;;3.70;;
55031;SDS011;40928;51.076;7.950;2023-08-24T03:30:52;6.10;;;3.25;;
55031;SDS011;40928;51.076;7.950;2023-08-24T03:33:21;7.00;;;3.33;;
55031;SDS011;40928;51.076;7.950;2023-08-24T03:35:47;7.45;;;3.00;;
55031;SDS011;40928;51.076;7.950;2023-08-24T03:38:13;6.75;;;3.10;;
55031;SDS011;40928;51.076;7.950;2023-08-24T03:40:39;8.00;;;3.33;;
55031;SDS011;40928;51.076;7.950;2023-08-24T03:43:07;5.07;;;2.95;;
55031;SDS011;40928;51.076;7.950;2023-08-24T03:45:33;4.82;;;3.08;;
55031;SDS011;40928;51.076;7.950;2023-08-24T03:47:59;5.00;;;3.22;;
55031;SDS011;40928;51.076;7.950;2023-08-24T03:50:25;6.75;;;3.63;;
55031;SDS011;40928;51.076;7.950;2023-08-24T03:52:51;7.68;;;3.60;;
55031;SDS011;40928;51.076;7.950;2023-08-24T03:55:20;6.97;;;3.33;;
55031;SDS011;40928;51.076;7.950;2023-08-24T03:57:47;5.13;;;3.45;;
55031;SDS011;40928;51.076;7.950;2023-08-24T04:00:12;6.60;;;3.00;;
55031;SDS011;40928;51.076;7.950;2023-08-24T04:02:42;4.30;;;3.10;;
55031;SDS011;40928;51.076;7.950;2023-08-24T04:05:16;15.13;;;3.90;;
55031;SDS011;40928;51.076;7.950;2023-08-24T04:07:47;4.82;;;3.05;;
55031;SDS011;40928;51.076;7.950;2023-08-24T04:10:13;4.57;;;3.28;;
55031;SDS011;40928;51.076;7.950;2023-08-24T04:12:39;15.40;;;3.80;;
55031;SDS011;40928;51.076;7.950;2023-08-24T04:15:08;6.55;;;3.35;;
55031;SDS011;40928;51.076;7.950;2023-08-24T04:17:34;9.25;;;3.75;;
55031;SDS011;40928;51.076;7.950;2023-08-24T04:20:00;8.43;;;4.28;;
55031;SDS011;40928;51.076;7.950;2023-08-24T04:22:26;7.68;;;4.22;;
55031;SDS011;40928;51.076;7.950;2023-08-24T04:24:51;5.25;;;3.85;;
55031;SDS011;40928;51.076;7.950;2023-08-24T04:27:17;9.43;;;4.50;;
55031;SDS011;40928;51.076;7.950;2023-08-24T04:29:42;9.68;;;5.28;;
55031;SDS011;40928;51.076;7.950;2023-08-24T04:32:08;9.32;;;4.38;;
55031;SDS011;40928;51.076;7.950;2023-08-24T04:34:34;8.45;;;4.15;;
55031;SDS011;40928;51.076;7.950;2023-08-24T04:37:00;11.00;;;4.40;;
55031;SDS011;40928;51.076;7.950;2023-08-24T04:39:26;6.13;;;3.92;;
55031;SDS011;40928;51.076;7.950;2023-08-24T04:41:52;13.43;;;4.38;;
55031;SDS011;40928;51.076;7.950;2023-08-24T04:44:17;6.50;;;3.53;;
55031;SDS011;40928;51.076;7.950;2023-08-24T04:46:44;7.97;;;3.85;;
55031;SDS011;40928;51.076;7.950;2023-08-24T04:49:09;8.40;;;4.18;;
55031;SDS011;40928;51.076;7.950;2023-08-24T04:51:35;5.63;;;3.85;;
55031;SDS011;40928;51.076;7.950;2023-08-24T04:54:01;11.77;;;5.72;;
55031;SDS011;40928;51.076;7.950;2023-08-24T04:56:26;20.17;;;12.55;;
55031;SDS011;40928;51.076;7.950;2023-08-24T04:58:53;14.75;;;10.07;;
55031;SDS011;40928;51.076;7.950;2023-08-24T05:01:20;10.13;;;6.07;;
55031;SDS011;40928;51.076;7.950;2023-08-24T05:03:46;13.30;;;4.93;;
55031;SDS011;40928;51.076;7.950;2023-08-24T05:06:12;5.85;;;3.55;;
55031;SDS011;40928;51.076;7.950;2023-08-24T05:08:37;9.70;;;3.53;;
55031;SDS011;40928;51.076;7.950;2023-08-24T05:11:09;4.18;;;2.90;;
55031;SDS011;40928;51.076;7.950;2023-08-24T05:13:40;5.65;;;2.97;;
55031;SDS011;40928;51.076;7.950;2023-08-24T05:16:06;5.50;;;3.50;;
55031;SDS011;40928;51.076;7.950;2023-08-24T05:18:31;8.02;;;3.70;;
55031;SDS011;40928;51.076;7.950;2023-08-24T05:20:59;4.57;;;3.40;;
55031;SDS011;40928;51.076;7.950;2023-08-24T05:23:24;5.68;;;3.13;;
55031;SDS011;40928;51.076;7.950;2023-08-24T05:25:50;6.07;;;3.50;;
55031;SDS011;40928;51.076;7.950;2023-08-24T05:28:15;8.25;;;3.83;;
55031;SDS011;40928;51.076;7.950;2023-08-24T05:30:41;8.15;;;4.70;;
55031;SDS011;40928;51.076;7.950;2023-08-24T05:33:07;10.27;;;3.92;;
55031;SDS011;40928;51.076;7.950;2023-08-24T05:35:33;11.43;;;4.07;;
55031;SDS011;40928;51.076;7.950;2023-08-24T05:37:58;9.90;;;3.20;;
55031;SDS011;40928;51.076;7.950;2023-08-24T05:40:24;8.85;;;3.45;;
55031;SDS011;40928;51.076;7.950;2023-08-24T05:42:50;15.90;;;3.78;;
55031;SDS011;40928;51.076;7.950;2023-08-24T05:45:15;8.48;;;3.90;;
55031;SDS011;40928;51.076;7.950;2023-08-24T05:47:41;9.60;;;3.88;;
55031;SDS011;40928;51.076;7.950;2023-08-24T05:50:07;5.38;;;3.40;;
55031;SDS011;40928;51.076;7.950;2023-08-24T05:52:33;10.07;;;3.22;;
55031;SDS011;40928;51.076;7.950;2023-08-24T05:55:00;7.47;;;3.45;;
55031;SDS011;40928;51.076;7.950;2023-08-24T05:57:25;5.97;;;3.03;;
55031;SDS011;40928;51.076;7.950;2023-08-24T05:59:51;5.30;;;2.80;;
55031;SDS011;40928;51.076;7.950;2023-08-24T06:02:17;11.52;;;3.60;;
55031;SDS011;40928;51.076;7.950;2023-08-24T06:04:42;5.57;;;2.63;;
55031;SDS011;40928;51.076;7.950;2023-08-24T06:07:08;5.32;;;3.10;;
55031;SDS011;40928;51.076;7.950;2023-08-24T06:09:34;9.98;;;3.20;;
55031;SDS011;40928;51.076;7.950;2023-08-24T06:12:00;11.20;;;4.32;;
55031;SDS011;40928;51.076;7.950;2023-08-24T06:14:25;6.47;;;3.45;;
55031;SDS011;40928;51.076;7.950;2023-08-24T06:16:51;6.32;;;3.50;;
55031;SDS011;40928;51.076;7.950;2023-08-24T06:19:18;6.85;;;3.63;;
55031;SDS011;40928;51.076;7.950;2023-08-24T06:21:44;8.07;;;3.45;;
55031;SDS011;40928;51.076;7.950;2023-08-24T06:24:09;7.95;;;3.47;;
55031;SDS011;40928;51.076;7.950;2023-08-24T06:26:35;5.72;;;3.67;;
55031;SDS011;40928;51.076;7.950;2023-08-24T06:29:01;7.53;;;3.83;;
55031;SDS011;40928;51.076;7.950;2023-08-24T06:31:26;6.75;;;3.80;;
55031;SDS011;40928;51.076;7.950;2023-08-24T06:33:52;4.22;;;3.00;;
55031;SDS011;40928;51.076;7.950;2023-08-24T06:36:18;9.57;;;3.60;;
55031;SDS011;40928;51.076;7.950;2023-08-24T06:38:43;7.55;;;3.30;;
55031;SDS011;40928;51.076;7.950;2023-08-24T06:41:09;5.97;;;3.88;;
55031;SDS011;40928;51.076;7.950;2023-08-24T06:43:37;10.38;;;4.45;;
55031;SDS011;40928;51.076;7.950;2023-08-24T06:46:06;16.77;;;8.18;;
55031;SDS011;40928;51.076;7.950;2023-08-24T06:48:35;12.70;;;7.25;;
55031;SDS011;40928;51.076;7.950;2023-08-24T06:51:02;11.07;;;5.57;;
55031;SDS011;40928;51.076;7.950;2023-08-24T06:53:28;7.97;;;4.70;;
55031;SDS011;40928;51.076;7.950;2023-08-24T06:55:55;6.75;;;4.43;;
55031;SDS011;40928;51.076;7.950;2023-08-24T06:58:22;7.40;;;4.32;;
55031;SDS011;40928;51.076;7.950;2023-08-24T07:00:49;8.45;;;3.97;;
55031;SDS011;40928;51.076;7.950;2023-08-24T07:03:21;7.70;;;4.25;;
55031;SDS011;40928;51.076;7.950;2023-08-24T07:05:47;8.27;;;4.03;;
55031;SDS011;40928;51.076;7.950;2023-08-24T07:08:13;10.30;;;4.43;;
55031;SDS011;40928;51.076;7.950;2023-08-24T07:11:01;10.05;;;3.88;;
55031;SDS011;40928;51.076;7.950;2023-08-24T07:13:28;8.38;;;4.05;;
55031;SDS011;40928;51.076;7.950;2023-08-24T07:15:54;5.93;;;2.85;;
55031;SDS011;40928;51.076;7.950;2023-08-24T07:18:20;4.15;;;2.95;;
55031;SDS011;40928;51.076;7.950;2023-08-24T07:20:48;5.20;;;3.45;;
55031;SDS011;40928;51.076;7.950;2023-08-24T07:23:23;9.35;;;3.58;;
55031;SDS011;40928;51.076;7.950;2023-08-24T07:25:49;10.90;;;4.93;;
55031;SDS011;40928;51.076;7.950;2023-08-24T07:28:16;8.15;;;3.80;;
55031;SDS011;40928;51.076;7.950;2023-08-24T07:30:42;7.90;;;3.25;;
55031;SDS011;40928;51.076;7.950;2023-08-24T07:33:07;5.53;;;3.28;;
55031;SDS011;40928;51.076;7.950;2023-08-24T07:35:33;16.13;;;5.72;;
55031;SDS011;40928;51.076;7.950;2023-08-24T07:37:59;12.55;;;4.72;;
55031;SDS011;40928;51.076;7.950;2023-08-24T07:40:30;8.57;;;5.00;;
55031;SDS011;40928;51.076;7.950;2023-08-24T07:42:56;9.70;;;3.90;;
55031;SDS011;40928;51.076;7.950;2023-08-24T07:45:22;11.23;;;4.30;;
55031;SDS011;40928;51.076;7.950;2023-08-24T07:47:49;8.18;;;3.75;;
55031;SDS011;40928;51.076;7.950;2023-08-24T07:50:15;6.32;;;3.78;;
55031;SDS011;40928;51.076;7.950;2023-08-24T07:52:44;5.55;;;3.65;;
55031;SDS011;40928;51.076;7.950;2023-08-24T07:55:18;13.60;;;5.03;;
55031;SDS011;40928;51.076;7.950;2023-08-24T07:57:44;15.00;;;5.03;;
55031;SDS011;40928;51.076;7.950;2023-08-24T08:00:10;10.23;;;3.83;;
55031;SDS011;40928;51.076;7.950;2023-08-24T08:02:38;6.15;;;2.10;;
55031;SDS011;40928;51.076;7.950;2023-08-24T08:05:05;4.40;;;2.50;;
55031;SDS011;40928;51.076;7.950;2023-08-24T08:07:36;3.75;;;1.80;;
55031;SDS011;40928;51.076;7.950;2023-08-24T08:10:04;3.05;;;1.73;;
55031;SDS011;40928;51.076;7.950;2023-08-24T08:12:32;7.53;;;1.90;;
55031;SDS011;40928;51.076;7.950;2023-08-24T08:14:59;5.03;;;1.42;;
55031;SDS011;40928;51.076;7.950;2023-08-24T08:17:30;2.17;;;1.30;;
55031;SDS011;40928;51.076;7.950;2023-08-24T08:22:35;2.47;;;1.40;;
55031;SDS011;40928;51.076;7.950;2023-08-24T08:25:05;4.32;;;1.50;;
55031;SDS011;40928;51.076;7.950;2023-08-24T08:27:31;4.70;;;1.30;;
55031;SDS011;40928;51.076;7.950;2023-08-24T08:29:58;4.25;;;1.13;;
55031;SDS011;40928;51.076;7.950;2023-08-24T08:32:24;2.53;;;1.40;;
55031;SDS011;40928;51.076;7.950;2023-08-24T08:34:55;3.80;;;1.25;;
55031;SDS011;40928;51.076;7.950;2023-08-24T08:37:22;3.75;;;1.42;;
55031;SDS011;40928;51.076;7.950;2023-08-24T08:39:48;3.88;;;1.38;;
55031;SDS011;40928;51.076;7.950;2023-08-24T08:42:13;1.92;;;1.05;;
55031;SDS011;40928;51.076;7.950;2023-08-24T08:44:40;5.05;;;1.55;;
55031;SDS011;40928;51.076;7.950;2023-08-24T08:47:08;3.15;;;1.17;;
55031;SDS011;40928;51.076;7.950;2023-08-24T08:49:39;2.67;;;1.30;;
55031;SDS011;40928;51.076;7.950;2023-08-24T08:52:08;2.88;;;1.52;;
55031;SDS011;40928;51.076;7.950;2023-08-24T08:54:35;4.55;;;1.55;;
55031;SDS011;40928;51.076;7.950;2023-08-24T08:57:01;3.58;;;1.30;;
55031;SDS011;40928;51.076;7.950;2023-08-24T08:59:27;2.90;;;1.38;;
55031;SDS011;40928;51.076;7.950;2023-08-24T09:01:56;4.90;;;1.83;;
55031;SDS011;40928;51.076;7.950;2023-08-24T09:04:32;1.90;;;1.20;;
55031;SDS011;40928;51.076;7.950;2023-08-24T09:07:00;2.60;;;1.30;;
55031;SDS011;40928;51.076;7.950;2023-08-24T09:09:29;2.85;;;1.58;;
55031;SDS011;40928;51.076;7.950;2023-08-24T09:11:55;2.55;;;1.30;;
55031;SDS011;40928;51.076;7.950;2023-08-24T09:14:25;3.30;;;1.60;;
55031;SDS011;40928;51.076;7.950;2023-08-24T09:16:50;8.57;;;1.42;;
55031;SDS011;40928;51.076;7.950;2023-08-24T09:19:16;2.85;;;1.30;;
55031;SDS011;40928;51.076;7.950;2023-08-24T09:21:48;2.05;;;1.40;;
55031;SDS011;40928;51.076;7.950;2023-08-24T09:24:13;2.28;;;1.13;;
55031;SDS011;40928;51.076;7.950;2023-08-24T09:26:39;5.22;;;1.15;;
55031;SDS011;40928;51.076;7.950;2023-08-24T09:29:14;1.73;;;1.25;;
55031;SDS011;40928;51.076;7.950;2023-08-24T09:31:47;3.73;;;1.17;;
55031;SDS011;40928;51.076;7.950;2023-08-24T09:34:19;4.15;;;1.30;;
55031;SDS011;40928;51.076;7.950;2023-08-24T09:36:46;6.65;;;1.08;;
55031;SDS011;40928;51.076;7.950;2023-08-24T09:39:12;2.28;;;1.08;;
55031;SDS011;40928;51.076;7.950;2023-08-24T09:41:45;3.10;;;1.25;;
55031;SDS011;40928;51.076;7.950;2023-08-24T09:44:16;3.80;;;1.48;;
55031;SDS011;40928;51.076;7.950;2023-08-24T09:46:43;2.90;;;1.20;;
55031;SDS011;40928;51.076;7.950;2023-08-24T09:49:11;2.45;;;1.33;;
55031;SDS011;40928;51.076;7.950;2023-08-24T09:51:39;4.03;;;1.60;;
55031;SDS011;40928;51.076;7.950;2023-08-24T09:54:10;2.50;;;1.05;;
55031;SDS011;40928;51.076;7.950;2023-08-24T09:56:39;3.67;;;1.40;;
55031;SDS011;40928;51.076;7.950;2023-08-24T09:59:17;4.35;;;1.45;;
55031;SDS011;40928;51.076;7.950;2023-08-24T10:01:48;7.47;;;1.52;;
55031;SDS011;40928;51.076;7.950;2023-08-24T10:04:15;2.80;;;1.15;;
55031;SDS011;40928;51.076;7.950;2023-08-24T10:06:46;2.22;;;1.38;;
55031;SDS011;40928;51.076;7.950;2023-08-24T10:09:22;3.38;;;1.00;;
55031;SDS011;40928;51.076;7.950;2023-08-24T10:12:07;3.20;;;1.10;;
55031;SDS011;40928;51.076;7.950;2023-08-24T10:17:12;4.13;;;1.42;;
55031;SDS011;40928;51.076;7.950;2023-08-24T10:19:41;4.40;;;1.38;;
55031;SDS011;40928;51.076;7.950;2023-08-24T10:22:10;3.15;;;1.50;;
55031;SDS011;40928;51.076;7.950;2023-08-24T10:24:38;2.83;;;1.20;;
55031;SDS011;40928;51.076;7.950;2023-08-24T10:27:04;2.78;;;1.23;;
55031;SDS011;40928;51.076;7.950;2023-08-24T10:29:37;1.75;;;1.20;;
55031;SDS011;40928;51.076;7.950;2023-08-24T10:32:05;5.07;;;1.48;;
55031;SDS011;40928;51.076;7.950;2023-08-24T10:34:33;4.45;;;1.38;;
55031;SDS011;40928;51.076;7.950;2023-08-24T10:37:11;1.90;;;1.30;;
55031;SDS011;40928;51.076;7.950;2023-08-24T10:39:43;4.10;;;1.10;;
55031;SDS011;40928;51.076;7.950;2023-08-24T10:42:13;4.05;;;1.40;;
55031;SDS011;40928;51.076;7.950;2023-08-24T10:44:46;11.30;;;1.77;;
55031;SDS011;40928;51.076;7.950;2023-08-24T10:47:14;4.15;;;1.48;;
55031;SDS011;40928;51.076;7.950;2023-08-24T10:50:06;3.92;;;1.10;;
55031;SDS011;40928;51.076;7.950;2023-08-24T10:52:32;5.32;;;1.30;;
55031;SDS011;40928;51.076;7.950;2023-08-24T10:55:03;4.65;;;1.27;;
55031;SDS011;40928;51.076;7.950;2023-08-24T10:57:37;3.70;;;1.23;;
55031;SDS011;40928;51.076;7.950;2023-08-24T11:00:11;2.65;;;1.02;;
55031;SDS011;40928;51.076;7.950;2023-08-24T11:07:49;4.38;;;1.75;;
55031;SDS011;40928;51.076;7.950;2023-08-24T11:10:28;3.60;;;1.35;;
55031;SDS011;40928;51.076;7.950;2023-08-24T11:15:39;3.75;;;1.30;;
55031;SDS011;40928;51.076;7.950;2023-08-24T11:20:47;4.53;;;1.85;;
55031;SDS011;40928;51.076;7.950;2023-08-24T11:23:33;6.47;;;1.40;;
55031;SDS011;40928;51.076;7.950;2023-08-24T11:26:02;3.33;;;1.38;;
55031;SDS011;40928;51.076;7.950;2023-08-24T11:28:30;2.70;;;1.23;;
55031;SDS011;40928;51.076;7.950;2023-08-24T11:30:59;3.83;;;1.40;;
55031;SDS011;40928;51.076;7.950;2023-08-24T11:33:31;2.47;;;1.27;;
55031;SDS011;40928;51.076;7.950;2023-08-24T11:36:02;3.53;;;1.33;;
55031;SDS011;40928;51.076;7.950;2023-08-24T11:38:36;1.92;;;1.13;;
55031;SDS011;40928;51.076;7.950;2023-08-24T11:41:13;3.25;;;1.60;;
55031;SDS011;40928;51.076;7.950;2023-08-24T11:43:46;3.20;;;1.60;;
55031;SDS011;40928;51.076;7.950;2023-08-24T11:46:16;7.05;;;1.65;;
55031;SDS011;40928;51.076;7.950;2023-08-24T11:48:43;3.38;;;1.35;;
55031;SDS011;40928;51.076;7.950;2023-08-24T11:51:11;4.82;;;2.00;;
55031;SDS011;40928;51.076;7.950;2023-08-24T11:53:44;2.25;;;1.23;;
55031;SDS011;40928;51.076;7.950;2023-08-24T11:56:11;3.83;;;1.20;;
55031;SDS011;40928;51.076;7.950;2023-08-24T11:58:38;4.38;;;1.67;;
55031;SDS011;40928;51.076;7.950;2023-08-24T12:01:11;4.18;;;1.55;;
55031;SDS011;40928;51.076;7.950;2023-08-24T12:03:37;6.75;;;1.30;;
55031;SDS011;40928;51.076;7.950;2023-08-24T12:06:11;4.78;;;1.52;;
55031;SDS011;40928;51.076;7.950;2023-08-24T12:08:42;4.72;;;1.40;;
55031;SDS011;40928;51.076;7.950;2023-08-24T12:11:17;5.70;;;1.50;;
55031;SDS011;40928;51.076;7.950;2023-08-24T12:13:52;3.38;;;1.40;;
55031;SDS011;40928;51.076;7.950;2023-08-24T12:16:20;3.72;;;1.60;;
55031;SDS011;40928;51.076;7.950;2023-08-24T12:18:49;7.20;;;2.08;;
55031;SDS011;40928;51.076;7.950;2023-08-24T12:21:19;5.65;;;1.60;;
55031;SDS011;40928;51.076;7.950;2023-08-24T12:26:31;7.07;;;1.67;;
55031;SDS011;40928;51.076;7.950;2023-08-24T12:29:01;6.10;;;1.42;;
55031;SDS011;40928;51.076;7.950;2023-08-24T12:31:32;3.72;;;1.42;;
55031;SDS011;40928;51.076;7.950;2023-08-24T12:34:02;5.13;;;1.83;;
55031;SDS011;40928;51.076;7.950;2023-08-24T12:36:37;5.35;;;1.48;;
55031;SDS011;40928;51.076;7.950;2023-08-24T12:39:04;3.55;;;1.67;;
55031;SDS011;40928;51.076;7.950;2023-08-24T12:41:33;3.88;;;1.70;;
55031;SDS011;40928;51.076;7.950;2023-08-24T12:43:59;4.20;;;1.60;;
55031;SDS011;40928;51.076;7.950;2023-08-24T12:46:30;2.70;;;1.38;;
55031;SDS011;40928;51.076;7.950;2023-08-24T12:48:56;4.53;;;1.67;;
55031;SDS011;40928;51.076;7.950;2023-08-24T12:51:22;3.67;;;1.88;;
55031;SDS011;40928;51.076;7.950;2023-08-24T12:53:49;2.13;;;1.20;;
55031;SDS011;40928;51.076;7.950;2023-08-24T12:56:15;6.32;;;2.08;;
55031;SDS011;40928;51.076;7.950;2023-08-24T12:58:42;2.55;;;1.17;;
55031;SDS011;40928;51.076;7.950;2023-08-24T13:01:08;3.63;;;1.55;;
55031;SDS011;40928;51.076;7.950;2023-08-24T13:03:33;3.78;;;1.50;;
55031;SDS011;40928;51.076;7.950;2023-08-24T13:06:01;2.92;;;1.75;;
55031;SDS011;40928;51.076;7.950;2023-08-24T13:08:29;5.03;;;1.48;;
55031;SDS011;40928;51.076;7.950;2023-08-24T13:10:55;4.53;;;1.50;;
55031;SDS011;40928;51.076;7.950;2023-08-24T13:13:21;4.32;;;1.30;;
55031;SDS011;40928;51.076;7.950;2023-08-24T13:15:49;3.38;;;1.27;;
55031;SDS011;40928;51.076;7.950;2023-08-24T13:18:15;3.60;;;1.40;;
55031;SDS011;40928;51.076;7.950;2023-08-24T13:20:43;3.75;;;1.42;;
55031;SDS011;40928;51.076;7.950;2023-08-24T13:23:09;4.60;;;1.30;;
55031;SDS011;40928;51.076;7.950;2023-08-24T13:25:35;4.68;;;1.63;;
55031;SDS011;40928;51.076;7.950;2023-08-24T13:28:01;7.07;;;1.67;;
55031;SDS011;40928;51.076;7.950;2023-08-24T13:30:27;3.28;;;1.10;;
55031;SDS011;40928;51.076;7.950;2023-08-24T13:32:52;6.10;;;1.23;;
55031;SDS011;40928;51.076;7.950;2023-08-24T13:35:20;3.88;;;1.42;;
55031;SDS011;40928;51.076;7.950;2023-08-24T13:37:45;4.38;;;1.27;;
55031;SDS011;40928;51.076;7.950;2023-08-24T13:40:12;5.82;;;1.48;;
55031;SDS011;40928;51.076;7.950;2023-08-24T13:42:38;4.32;;;1.30;;
55031;SDS011;40928;51.076;7.950;2023-08-24T13:45:03;6.18;;;1.77;;
55031;SDS011;40928;51.076;7.950;2023-08-24T13:47:29;8.38;;;1.50;;
55031;SDS011;40928;51.076;7.950;2023-08-24T13:49:55;7.57;;;1.95;;
55031;SDS011;40928;51.076;7.950;2023-08-24T13:52:21;4.15;;;1.40;;
55031;SDS011;40928;51.076;7.950;2023-08-24T13:54:47;4.65;;;1.48;;
55031;SDS011;40928;51.076;7.950;2023-08-24T13:57:13;3.45;;;1.63;;
55031;SDS011;40928;51.076;7.950;2023-08-24T13:59:39;6.60;;;1.58;;
55031;SDS011;40928;51.076;7.950;2023-08-24T14:02:05;2.45;;;1.30;;
55031;SDS011;40928;51.076;7.950;2023-08-24T14:04:31;3.50;;;1.60;;
55031;SDS011;40928;51.076;7.950;2023-08-24T14:06:57;5.70;;;1.42;;
55031;SDS011;40928;51.076;7.950;2023-08-24T14:09:23;2.65;;;1.02;;
55031;SDS011;40928;51.076;7.950;2023-08-24T14:11:49;11.82;;;2.17;;
55031;SDS011;40928;51.076;7.950;2023-08-24T14:14:15;2.63;;;1.10;;
55031;SDS011;40928;51.076;7.950;2023-08-24T14:16:40;5.40;;;1.48;;
55031;SDS011;40928;51.076;7.950;2023-08-24T14:19:06;2.92;;;1.73;;
55031;SDS011;40928;51.076;7.950;2023-08-24T14:21:32;4.07;;;1.92;;
55031;SDS011;40928;51.076;7.950;2023-08-24T14:23:58;3.92;;;1.42;;
55031;SDS011;40928;51.076;7.950;2023-08-24T14:26:23;4.43;;;1.50;;
55031;SDS011;40928;51.076;7.950;2023-08-24T14:28:58;4.00;;;1.80;;
55031;SDS011;40928;51.076;7.950;2023-08-24T14:31:24;6.38;;;1.70;;
55031;SDS011;40928;51.076;7.950;2023-08-24T14:33:52;3.92;;;1.48;;
55031;SDS011;40928;51.076;7.950;2023-08-24T14:36:19;8.23;;;1.63;;
55031;SDS011;40928;51.076;7.950;2023-08-24T14:38:45;5.90;;;1.63;;
55031;SDS011;40928;51.076;7.950;2023-08-24T14:41:13;2.80;;;1.60;;
55031;SDS011;40928;51.076;7.950;2023-08-24T14:43:40;7.95;;;2.00;;
55031;SDS011;40928;51.076;7.950;2023-08-24T14:46:06;6.25;;;2.17;;
55031;SDS011;40928;51.076;7.950;2023-08-24T14:48:32;4.80;;;1.95;;
55031;SDS011;40928;51.076;7.950;2023-08-24T14:50:58;4.65;;;1.60;;
55031;SDS011;40928;51.076;7.950;2023-08-24T14:53:24;5.35;;;1.92;;
55031;SDS011;40928;51.076;7.950;2023-08-24T14:55:52;4.63;;;1.83;;
55031;SDS011;40928;51.076;7.950;2023-08-24T14:58:19;8.00;;;1.70;;
55031;SDS011;40928;51.076;7.950;2023-08-24T15:00:46;2.88;;;1.55;;
55031;SDS011;40928;51.076;7.950;2023-08-24T15:03:12;4.40;;;1.40;;
55031;SDS011;40928;51.076;7.950;2023-08-24T15:05:42;2.53;;;1.70;;
55031;SDS011;40928;51.076;7.950;2023-08-24T15:08:09;12.05;;;1.70;;
55031;SDS011;40928;51.076;7.950;2023-08-24T15:10:36;5.20;;;1.77;;
55031;SDS011;40928;51.076;7.950;2023-08-24T15:13:03;4.03;;;1.90;;
55031;SDS011;40928;51.076;7.950;2023-08-24T15:15:30;3.15;;;1.50;;
55031;SDS011;40928;51.076;7.950;2023-08-24T15:18:00;2.53;;;1.58;;
55031;SDS011;40928;51.076;7.950;2023-08-24T15:20:25;8.73;;;1.70;;
55031;SDS011;40928;51.076;7.950;2023-08-24T15:22:51;5.40;;;1.70;;
55031;SDS011;40928;51.076;7.950;2023-08-24T15:25:17;3.60;;;1.70;;
55031;SDS011;40928;51.076;7.950;2023-08-24T15:27:43;7.15;;;2.22;;
55031;SDS011;40928;51.076;7.950;2023-08-24T15:30:09;6.97;;;1.83;;